Hauptseite
METAR-TAF:

METAR-TAF

Flughäfen :

Ann Arbor, Michigan, Vereinigte Staaten

Breite: 42-13-26N, Länge: 083-44-24W, Höhe: 255 m

Beobachtung

Neuester Wetterbericht von vor 41 Minuten, um 16:53 UTC
Wind 12 kt aus West/Nordwest, Böen bis zu 21 kt
Temperatur 7°C
Luftfeuchtigkeit 66%
Luftdruck 1015 hPa
Sichtweite: 16.1 km
Geschlossene Wolkendecke in der Höhe von 2100 ft

METAR: KARB 301653Z 30012G21KT 10SM OVC021 07/01 A2998 RMK AO2 SLP154 T00670011

Zeit: 13:34 (17:34 UTC)


TAF: fehlend

Wetterbeobachtungen und Prognosen von mehr als 4000 Flughäfen (METAR und TAF Bericht).

Die verfügbaren Stationen werden durch gelbe und rote Markierungen auf der Karte dargestellt.

Führen Sie die Maus auf sie, um den Namen der Station zu sehen.

Darauf klicken, um die Beobachtung von Wetterbeobachtungen und Prognosen zu sehen.

Um die Karte zu ändern : klicken Sie auf den grünen Tasten mit einem schwarzen Kreuz Zum Vergrößern, auf den grünen Button mit einem Gedankenstrich zu verkleinern, oder auf die grünen Pfeile für benachbarte Karten.


METAR-TAF: